Time;durP1;ratioP1;P1;durP2;ratioP2;P2;SDS_P1;SDS_P2;PMS_P1;PMS_P2;Temp;Humidity;BMP_temperature;BMP_pressure;BME280_temperature;BME280_humidity;BME280_pressure;Samples;Min_cycle;Max_cycle;Signal;HPM_P1;HPM_P2
2021/07/05 00:02:09;;;;;;;8.02;6.80;;;;;;;18.91;nan;99926.13;5006051;28;20085;-79
2021/07/05 00:04:36;;;;;;;9.20;6.60;;;;;;;18.87;nan;99928.09;4989274;28;20045;-79
2021/07/05 00:07:02;;;;;;;8.35;5.95;;;;;;;18.86;nan;99925.50;5008396;28;20029;-79
2021/07/05 00:09:27;;;;;;;8.02;6.45;;;;;;;18.74;nan;99930.47;4988276;28;20049;-79
2021/07/05 00:11:53;;;;;;;6.97;6.28;;;;;;;18.62;nan;99928.41;4990355;28;20041;-79
2021/07/05 00:14:18;;;;;;;8.82;6.00;;;;;;;18.62;nan;99937.28;5009991;28;20124;-80
2021/07/05 00:16:44;;;;;;;8.00;6.57;;;;;;;18.64;nan;99931.00;5007885;28;20034;-79
2021/07/05 00:19:09;;;;;;;10.93;6.47;;;;;;;18.70;nan;99926.22;4994390;28;20034;-79
2021/07/05 00:21:35;;;;;;;8.85;7.00;;;;;;;18.75;nan;99921.53;5010800;28;20049;-79
2021/07/05 00:24:00;;;;;;;8.90;7.15;;;;;;;18.82;nan;99928.31;5008100;28;20038;-79
2021/07/05 00:26:25;;;;;;;7.05;6.32;;;;;;;18.94;nan;99925.97;5013742;28;20040;-79
2021/07/05 00:28:51;;;;;;;8.80;6.95;;;;;;;19.05;nan;99926.31;5012445;28;20109;-79
2021/07/05 00:31:16;;;;;;;8.40;6.65;;;;;;;19.12;nan;99927.72;5013254;28;20046;-80
2021/07/05 00:33:42;;;;;;;7.03;6.22;;;;;;;19.17;nan;99928.34;5015425;28;20049;-79
2021/07/05 00:36:07;;;;;;;9.40;6.68;;;;;;;19.22;nan;99931.66;5011651;28;20026;-79
2021/07/05 00:38:32;;;;;;;9.90;8.10;;;;;;;19.25;nan;99928.81;5012278;28;20042;-79
2021/07/05 00:40:58;;;;;;;8.77;7.13;;;;;;;19.33;nan;99931.09;5013680;28;20034;-79
2021/07/05 00:43:23;;;;;;;9.40;7.70;;;;;;;19.35;nan;99928.34;5011216;28;20089;-79
2021/07/05 00:45:49;;;;;;;10.98;7.85;;;;;;;19.39;nan;99932.59;5014852;28;20053;-79
2021/07/05 00:48:14;;;;;;;7.65;6.60;;;;;;;19.38;nan;99921.00;5012903;28;20484;-79
2021/07/05 00:50:40;;;;;;;9.18;6.80;;;;;;;19.37;nan;99918.44;5013981;28;20034;-79
2021/07/05 00:53:05;;;;;;;7.32;6.50;;;;;;;19.42;nan;99921.75;5011767;28;20093;-79
2021/07/05 00:55:32;;;;;;;9.52;6.25;;;;;;;19.40;nan;99923.63;5012462;28;20037;-80
2021/07/05 00:57:58;;;;;;;10.00;7.10;;;;;;;19.43;nan;99924.31;5013700;28;20044;-79
2021/07/05 01:00:26;;;;;;;7.97;6.88;;;;;;;19.48;nan;99922.25;5011868;28;20068;-79
2021/07/05 01:02:52;;;;;;;8.32;6.35;;;;;;;19.53;nan;99930.06;4995199;28;20492;-79
2021/07/05 01:05:18;;;;;;;8.55;6.43;;;;;;;19.67;nan;99932.03;5014397;28;20361;-79
2021/07/05 01:07:45;;;;;;;10.63;8.10;;;;;;;19.62;nan;99929.59;5011416;28;20042;-79
2021/07/05 01:10:11;;;;;;;9.90;7.22;;;;;;;19.59;nan;99928.88;5012881;28;20030;-79
2021/07/05 01:12:38;;;;;;;10.73;6.45;;;;;;;19.68;nan;99929.28;5013854;28;20060;-79
2021/07/05 01:15:05;;;;;;;11.57;7.80;;;;;;;19.67;nan;99924.84;5011519;28;20046;-79
2021/07/05 01:17:31;;;;;;;10.25;7.05;;;;;;;19.59;nan;99929.72;5013619;28;20527;-79
2021/07/05 01:19:56;;;;;;;8.55;6.97;;;;;;;19.54;nan;99933.59;5014184;28;20042;-79
2021/07/05 01:22:22;;;;;;;10.50;6.70;;;;;;;19.51;nan;99931.94;5012414;28;20088;-79
2021/07/05 01:24:48;;;;;;;9.23;7.10;;;;;;;19.44;nan;99930.53;5012400;28;20030;-79
2021/07/05 01:27:14;;;;;;;9.93;7.68;;;;;;;19.40;nan;99928.97;5011964;28;20042;-79
2021/07/05 01:29:40;;;;;;;9.45;7.43;;;;;;;19.42;nan;99929.75;5010182;28;20049;-79
2021/07/05 01:32:07;;;;;;;9.07;7.50;;;;;;;19.52;nan;99933.69;5013925;28;20038;-79
2021/07/05 01:34:32;;;;;;;9.55;8.48;;;;;;;19.64;nan;99937.53;4995573;28;20053;-79
2021/07/05 01:36:58;;;;;;;10.05;7.80;;;;;;;19.72;nan;99934.47;5008979;28;20034;-79
2021/07/05 01:39:24;;;;;;;8.93;7.65;;;;;;;19.82;nan;99930.34;5012220;28;20071;-79
2021/07/05 01:41:49;;;;;;;9.25;6.97;;;;;;;19.90;nan;99933.47;4994433;28;20045;-78
2021/07/05 01:44:15;;;;;;;7.10;6.22;;;;;;;19.98;nan;99936.59;5009842;28;20046;-79
2021/07/05 01:46:41;;;;;;;8.15;6.75;;;;;;;20.04;nan;99930.94;4992658;28;20129;-79
2021/07/05 01:49:06;;;;;;;11.07;8.40;;;;;;;20.06;nan;99934.38;5010936;28;20041;-78
2021/07/05 01:51:32;;;;;;;9.13;7.32;;;;;;;20.04;nan;99930.03;4995057;28;20033;-79
2021/07/05 01:53:57;;;;;;;8.43;7.47;;;;;;;20.00;nan;99932.03;5009219;28;20042;-78
2021/07/05 01:56:23;;;;;;;10.18;7.60;;;;;;;19.99;nan;99933.00;5013400;28;20255;-79
2021/07/05 01:58:48;;;;;;;10.98;7.82;;;;;;;19.89;nan;99937.13;5006688;28;20104;-79
2021/07/05 02:01:13;;;;;;;9.02;7.20;;;;;;;19.91;nan;99938.75;5018236;28;20037;-79
2021/07/05 02:03:39;;;;;;;7.72;6.88;;;;;;;19.93;nan;99931.47;5012472;28;20037;-79
2021/07/05 02:06:04;;;;;;;9.32;7.72;;;;;;;19.90;nan;99930.78;5009695;28;20042;-79
2021/07/05 02:08:30;;;;;;;7.70;6.82;;;;;;;19.90;nan;99934.34;5011324;28;20098;-79
2021/07/05 02:10:55;;;;;;;9.05;7.07;;;;;;;19.85;nan;99940.91;5014104;28;20052;-79
2021/07/05 02:13:29;;;;;;;8.20;6.85;;;;;;;19.79;nan;99934.06;5011369;28;20038;-80
2021/07/05 02:15:57;;;;;;;7.85;6.53;;;;;;;19.84;nan;99934.69;4994097;28;20088;-80
2021/07/05 02:18:24;;;;;;;7.53;6.63;;;;;;;19.84;nan;99933.81;5012013;28;20054;-80
2021/07/05 02:20:50;;;;;;;10.35;6.82;;;;;;;19.82;nan;99941.06;5012475;28;20037;-80
2021/07/05 02:23:20;;;;;;;8.27;7.30;;;;;;;19.85;nan;99946.25;5016007;28;20034;-80
2021/07/05 02:25:46;;;;;;;8.18;6.65;;;;;;;19.79;nan;99952.81;5017071;28;20092;-80
2021/07/05 02:28:14;;;;;;;8.38;7.57;;;;;;;19.80;nan;99953.66;5015216;28;20038;-80
2021/07/05 02:30:41;;;;;;;8.60;7.38;;;;;;;19.80;nan;99949.16;5014131;28;20052;-80
2021/07/05 02:33:07;;;;;;;7.32;6.20;;;;;;;19.77;nan;99959.19;5002388;28;20100;-80
2021/07/05 02:35:34;;;;;;;11.32;8.05;;;;;;;19.78;nan;99958.22;4994439;28;20066;-80
2021/07/05 02:38:00;;;;;;;9.48;7.38;;;;;;;19.77;nan;99957.38;5014097;28;20087;-80
2021/07/05 02:40:29;;;;;;;9.10;7.97;;;;;;;19.81;nan;99963.44;5011421;28;20034;-80
2021/07/05 02:42:55;;;;;;;9.43;7.90;;;;;;;19.81;nan;99966.97;4992335;28;20125;-79
2021/07/05 02:45:24;;;;;;;9.88;7.43;;;;;;;19.76;nan;99962.81;5010096;28;20073;-79
2021/07/05 02:47:55;;;;;;;13.55;7.55;;;;;;;19.77;nan;99969.91;5009232;28;20034;-79
2021/07/05 02:50:20;;;;;;;8.05;6.43;;;;;;;19.74;nan;99970.06;4993941;28;20038;-79
2021/07/05 02:52:46;;;;;;;9.27;8.25;;;;;;;19.69;nan;99967.63;5012285;28;20239;-79
2021/07/05 02:55:12;;;;;;;9.40;7.68;;;;;;;19.74;nan;99972.75;4992249;28;20030;-79
2021/07/05 02:57:38;;;;;;;9.35;7.75;;;;;;;19.76;nan;99974.38;5010879;28;20095;-79
2021/07/05 03:00:09;;;;;;;8.65;6.70;;;;;;;19.72;nan;99980.84;4991388;28;20061;-79
2021/07/05 03:02:34;;;;;;;15.18;10.80;;;;;;;19.66;nan;99979.34;4992978;28;20057;-79
2021/07/05 03:05:01;;;;;;;9.20;7.03;;;;;;;19.66;nan;99978.47;5009517;28;20034;-79
2021/07/05 03:07:26;;;;;;;10.30;9.20;;;;;;;19.59;nan;99983.25;5006829;28;20042;-79
2021/07/05 03:09:52;;;;;;;8.85;6.95;;;;;;;19.58;nan;99978.00;5010417;28;20083;-79
2021/07/05 03:12:18;;;;;;;12.05;8.45;;;;;;;19.64;nan;99991.91;4989791;28;20121;-79
2021/07/05 03:14:43;;;;;;;9.45;7.22;;;;;;;19.61;nan;99986.72;4993493;28;20048;-79
2021/07/05 03:17:08;;;;;;;12.90;10.00;;;;;;;19.68;nan;99992.69;4987499;28;20065;-79
2021/07/05 03:19:34;;;;;;;10.38;7.43;;;;;;;19.75;nan;99993.19;5007692;28;20033;-79
2021/07/05 03:21:59;;;;;;;11.32;9.52;;;;;;;19.67;nan;100004.31;5014790;28;20054;-79
2021/07/05 03:24:24;;;;;;;8.55;6.30;;;;;;;19.63;nan;100000.91;5008110;28;20067;-79
2021/07/05 03:26:50;;;;;;;8.95;7.03;;;;;;;19.63;nan;100000.03;5007863;28;20047;-79
2021/07/05 03:29:15;;;;;;;7.18;6.38;;;;;;;19.65;nan;99998.16;4990646;28;20050;-78
2021/07/05 03:31:40;;;;;;;8.57;6.75;;;;;;;19.70;nan;99999.69;5009530;28;20032;-79
2021/07/05 03:34:06;;;;;;;8.80;7.03;;;;;;;19.65;nan;100004.38;5007605;28;20042;-79
2021/07/05 03:36:31;;;;;;;8.27;6.45;;;;;;;19.62;nan;100001.88;5008387;28;20117;-79
2021/07/05 03:38:56;;;;;;;7.47;6.07;;;;;;;19.63;nan;100011.59;5008059;28;20101;-79
2021/07/05 03:41:22;;;;;;;9.45;8.18;;;;;;;19.68;nan;100008.72;5005571;28;20038;-78
2021/07/05 03:43:47;;;;;;;7.05;6.13;;;;;;;19.75;nan;100009.25;5009988;28;20042;-79
2021/07/05 03:46:12;;;;;;;7.40;5.53;;;;;;;19.69;nan;100011.31;5010572;28;20030;-80
2021/07/05 03:48:38;;;;;;;7.82;5.78;;;;;;;19.73;nan;100003.13;5008501;28;20034;-79
2021/07/05 03:51:03;;;;;;;7.60;6.35;;;;;;;19.71;nan;100003.22;5010824;28;20041;-79
2021/07/05 03:53:28;;;;;;;8.90;5.70;;;;;;;19.72;nan;100009.44;5009787;28;20038;-79
2021/07/05 03:55:54;;;;;;;7.47;5.95;;;;;;;19.65;nan;100007.06;5007946;28;20053;-79
2021/07/05 03:58:20;;;;;;;8.88;6.38;;;;;;;19.67;nan;100013.19;5011049;28;20034;-78
2021/07/05 04:00:45;;;;;;;7.90;5.32;;;;;;;19.69;nan;100008.63;5010857;28;20038;-79
2021/07/05 04:03:11;;;;;;;5.47;4.72;;;;;;;19.66;nan;100016.84;5013455;28;20030;-79
2021/07/05 04:05:37;;;;;;;7.75;6.15;;;;;;;19.70;nan;100018.41;5014197;28;20046;-79
2021/07/05 04:08:03;;;;;;;9.13;5.03;;;;;;;19.70;nan;100023.78;5013088;28;20030;-79
2021/07/05 04:10:30;;;;;;;8.80;6.53;;;;;;;19.76;nan;100019.03;5013815;28;20124;-79
2021/07/05 04:12:55;;;;;;;6.20;4.40;;;;;;;19.90;nan;100019.16;5014981;28;20041;-79
2021/07/05 04:15:21;;;;;;;9.23;6.75;;;;;;;19.70;nan;100018.41;5012896;28;20096;-80
2021/07/05 04:17:47;;;;;;;6.63;4.47;;;;;;;19.82;nan;100016.03;5015327;28;20033;-79
2021/07/05 04:20:19;;;;;;;7.78;6.10;;;;;;;19.82;nan;100021.38;5015922;28;20064;-79
2021/07/05 04:22:45;;;;;;;;;;;;;;;19.81;nan;100025.88;5014416;28;20088;-79
2021/07/05 04:25:12;;;;;;;7.28;5.07;;;;;;;19.95;nan;100019.78;5017635;28;20000;-79
2021/07/05 04:27:38;;;;;;;5.75;3.85;;;;;;;19.94;nan;100023.44;5015330;28;20034;-79
2021/07/05 04:30:05;;;;;;;6.97;4.07;;;;;;;19.83;nan;100012.41;5018640;28;20677;-79
2021/07/05 04:32:31;;;;;;;5.03;3.50;;;;;;;19.79;nan;100010.84;5002194;28;20026;-79
2021/07/05 04:34:56;;;;;;;4.38;3.75;;;;;;;19.78;nan;100014.44;5017035;28;20034;-79
2021/07/05 04:37:22;;;;;;;6.93;5.00;;;;;;;19.87;nan;100008.63;5018628;28;20057;-79
2021/07/05 04:39:47;;;;;;;12.52;6.15;;;;;;;19.95;nan;100009.09;5018330;28;20030;-79
2021/07/05 04:42:13;;;;;;;4.60;3.60;;;;;;;20.03;nan;100016.72;5018196;28;20065;-79
2021/07/05 04:44:40;;;;;;;7.63;4.13;;;;;;;19.98;nan;100021.44;5019090;28;20065;-79
2021/07/05 04:47:06;;;;;;;7.18;3.90;;;;;;;19.76;nan;100016.38;5016196;28;20049;-79
2021/07/05 04:49:31;;;;;;;7.22;4.65;;;;;;;19.82;nan;100010.69;5013129;28;20042;-80
2021/07/05 04:51:56;;;;;;;8.55;4.22;;;;;;;19.89;nan;100014.78;5015910;28;20038;-80
2021/07/05 04:54:22;;;;;;;5.70;3.90;;;;;;;19.91;nan;100018.22;5013256;28;20393;-80
2021/07/05 04:56:47;;;;;;;5.78;4.25;;;;;;;20.07;nan;100015.63;5013998;28;20042;-79
2021/07/05 04:59:14;;;;;;;4.85;3.60;;;;;;;20.05;nan;100021.03;5015464;28;20030;-79
2021/07/05 05:01:39;;;;;;;6.15;4.65;;;;;;;20.09;nan;100022.59;4996058;28;20064;-79
2021/07/05 05:04:05;;;;;;;8.57;4.15;;;;;;;20.05;nan;100021.03;5014364;28;20508;-79
2021/07/05 05:06:30;;;;;;;6.47;4.22;;;;;;;20.04;nan;100015.75;5039076;23;20397;-75
2021/07/05 05:08:55;;;;;;;5.53;4.20;;;;;;;19.97;nan;100027.75;5043048;28;20566;-75
2021/07/05 05:11:21;;;;;;;5.30;3.95;;;;;;;19.98;nan;100030.34;5043038;28;20037;-75
2021/07/05 05:13:47;;;;;;;5.75;3.65;;;;;;;20.03;nan;100033.63;5025402;28;20045;-75
2021/07/05 05:16:12;;;;;;;5.70;4.05;;;;;;;20.04;nan;100031.81;5043591;28;20037;-75
2021/07/05 05:18:39;;;;;;;5.80;4.30;;;;;;;20.06;nan;100041.50;5044563;28;20404;-75
2021/07/05 05:21:04;;;;;;;5.80;4.50;;;;;;;20.17;nan;100043.59;5042156;28;20073;-74
2021/07/05 05:23:29;;;;;;;7.30;5.18;;;;;;;20.20;nan;100042.59;5043392;28;20055;-75
2021/07/05 05:25:55;;;;;;;6.13;3.75;;;;;;;20.23;nan;100047.81;5044243;28;20475;-74
2021/07/05 05:28:20;;;;;;;5.95;4.15;;;;;;;20.21;nan;100047.00;5042316;28;20033;-74
2021/07/05 05:30:46;;;;;;;5.57;4.30;;;;;;;20.21;nan;100045.19;5043039;28;20413;-74
2021/07/05 05:33:11;;;;;;;6.95;4.75;;;;;;;20.20;nan;100055.97;5044447;28;20037;-75
2021/07/05 05:35:36;;;;;;;5.85;3.92;;;;;;;20.25;nan;100051.25;5041968;28;20507;-74
2021/07/05 05:38:02;;;;;;;9.18;5.50;;;;;;;20.30;nan;100058.09;5042699;28;20065;-75
2021/07/05 05:40:27;;;;;;;7.28;3.65;;;;;;;20.39;nan;100054.06;5044311;28;20103;-75
2021/07/05 05:42:53;;;;;;;4.97;3.78;;;;;;;20.34;nan;100061.47;5042428;28;20032;-75
2021/07/05 05:45:19;;;;;;;7.80;3.80;;;;;;;20.27;nan;100057.38;5042298;28;20482;-75
2021/07/05 05:47:45;;;;;;;5.20;3.58;;;;;;;20.26;nan;100061.03;5044232;28;20028;-75
2021/07/05 05:50:11;;;;;;;6.03;3.70;;;;;;;20.35;nan;100071.25;5042738;28;20067;-75
2021/07/05 05:52:37;;;;;;;5.60;4.07;;;;;;;20.28;nan;100061.81;5041747;28;20033;-75
2021/07/05 05:55:04;;;;;;;7.47;3.80;;;;;;;20.32;nan;100066.91;5043808;28;20631;-75
2021/07/05 05:57:30;;;;;;;9.90;6.28;;;;;;;20.42;nan;100072.66;5043031;28;20044;-75
2021/07/05 05:59:58;;;;;;;6.95;4.63;;;;;;;20.56;nan;100064.72;5041382;28;20033;-75
2021/07/05 06:02:24;;;;;;;4.72;3.13;;;;;;;20.61;nan;100063.63;5039151;28;20035;-75
2021/07/05 06:04:50;;;;;;;4.72;3.47;;;;;;;20.41;nan;100068.25;5043158;28;20043;-77
2021/07/05 06:07:15;;;;;;;5.78;3.55;;;;;;;20.24;nan;100073.63;5041846;28;20041;-75
2021/07/05 06:09:40;;;;;;;6.28;4.20;;;;;;;20.23;nan;100069.25;5035491;28;20484;-75
2021/07/05 06:12:06;;;;;;;6.20;3.75;;;;;;;20.24;nan;100070.94;5036541;28;20029;-75
2021/07/05 06:14:32;;;;;;;6.55;3.72;;;;;;;20.43;nan;100078.88;5039879;28;20041;-74
2021/07/05 06:16:57;;;;;;;4.72;2.75;;;;;;;20.40;nan;100076.34;5037100;28;20040;-75
2021/07/05 06:19:22;;;;;;;3.88;3.20;;;;;;;20.35;nan;100079.28;5037799;28;20036;-75
2021/07/05 06:21:48;;;;;;;4.50;3.28;;;;;;;20.17;nan;100082.94;5038524;28;20029;-75
2021/07/05 06:24:13;;;;;;;4.15;2.85;;;;;;;20.03;nan;100073.81;5038490;28;20028;-75
2021/07/05 06:26:39;;;;;;;6.32;4.40;;;;;;;20.06;nan;100076.34;5032009;28;20026;-75
2021/07/05 06:29:05;;;;;;;5.32;3.20;;;;;;;20.12;nan;100084.06;5034905;28;20090;-76
2021/07/05 06:31:35;;;;;;;7.07;3.47;;;;;;;20.00;nan;100090.06;5029354;28;20057;-76
2021/07/05 06:34:00;;;;;;;6.30;3.35;;;;;;;19.91;nan;100094.09;5042325;28;20040;-75
2021/07/05 06:36:26;;;;;;;6.15;3.15;;;;;;;19.83;nan;100098.09;5037753;28;20029;-74
2021/07/05 06:38:51;;;;;;;6.45;4.18;;;;;;;19.63;nan;100101.75;5034464;28;20037;-75
2021/07/05 06:41:16;;;;;;;4.47;3.33;;;;;;;19.67;nan;100103.34;5039665;28;20048;-75
2021/07/05 06:43:42;;;;;;;4.95;3.78;;;;;;;19.63;nan;100102.63;5036955;28;20061;-75
2021/07/05 06:46:08;;;;;;;7.85;3.25;;;;;;;19.68;nan;100105.09;5038486;28;20040;-75
2021/07/05 06:48:33;;;;;;;5.78;3.55;;;;;;;19.72;nan;100113.84;5035413;28;20033;-75
2021/07/05 06:50:58;;;;;;;7.57;4.40;;;;;;;19.72;nan;100108.50;5038393;28;20549;-75
2021/07/05 06:53:24;;;;;;;5.85;4.25;;;;;;;19.82;nan;100110.63;5037504;28;20025;-74
2021/07/05 06:55:49;;;;;;;4.97;3.83;;;;;;;19.83;nan;100114.16;5040905;28;20515;-75
2021/07/05 06:58:14;;;;;;;6.47;4.30;;;;;;;19.74;nan;100120.00;5040115;28;20037;-74
2021/07/05 07:00:40;;;;;;;9.10;4.45;;;;;;;19.65;nan;100122.16;5020445;28;20045;-75
2021/07/05 07:03:06;;;;;;;8.70;3.97;;;;;;;19.41;nan;100118.00;5034190;28;20034;-75
2021/07/05 07:05:33;;;;;;;5.78;3.80;;;;;;;19.57;nan;100123.47;5031410;28;20052;-75
2021/07/05 07:07:59;;;;;;;6.00;3.45;;;;;;;19.64;nan;100124.91;5040784;28;20056;-75
2021/07/05 07:10:25;;;;;;;5.13;2.97;;;;;;;19.47;nan;100123.94;5048420;28;20501;-75
2021/07/05 07:12:54;;;;;;;5.07;2.97;;;;;;;19.32;nan;100129.19;5039803;28;20034;-75
2021/07/05 07:15:24;;;;;;;6.05;3.78;;;;;;;19.24;nan;100121.53;5041141;28;20037;-75
2021/07/05 07:18:01;;;;;;;4.30;2.78;;;;;;;19.22;nan;100120.72;5041587;28;20041;-75
2021/07/05 07:20:26;;;;;;;5.80;3.35;;;;;;;18.96;nan;100120.16;5039630;28;20032;-76
2021/07/05 07:22:52;;;;;;;4.90;3.28;;;;;;;18.84;nan;100118.09;5035587;28;20411;-75
2021/07/05 07:25:17;;;;;;;3.95;2.67;;;;;;;18.83;nan;100122.53;5043979;28;20028;-75
2021/07/05 07:27:43;;;;;;;4.32;3.20;;;;;;;18.89;nan;100116.06;5039742;28;20033;-74
2021/07/05 07:30:11;;;;;;;4.35;3.25;;;;;;;19.10;nan;100118.63;5041839;28;20033;-75
2021/07/05 07:32:38;;;;;;;6.45;3.38;;;;;;;19.13;nan;100119.38;5034232;28;20033;-75
2021/07/05 07:35:03;;;;;;;4.15;2.72;;;;;;;19.13;nan;100122.03;5040679;28;20025;-76
2021/07/05 07:37:29;;;;;;;5.03;2.72;;;;;;;19.21;nan;100113.66;5040647;28;20476;-77
2021/07/05 07:40:09;;;;;;;6.90;3.63;;;;;;;19.17;nan;100104.88;5036991;28;20057;-75
2021/07/05 07:42:35;;;;;;;6.13;3.83;;;;;;;19.24;nan;100113.50;5043107;28;20445;-75
2021/07/05 07:45:00;;;;;;;4.35;2.90;;;;;;;19.31;nan;100106.03;5039423;28;20037;-75
2021/07/05 07:47:25;;;;;;;5.78;3.00;;;;;;;19.24;nan;100103.66;5041061;28;20040;-75
2021/07/05 07:49:51;;;;;;;3.80;2.28;;;;;;;19.16;nan;100107.66;5041830;28;20128;-76
2021/07/05 07:52:16;;;;;;;4.38;2.00;;;;;;;19.02;nan;100105.63;5039464;28;20037;-75
2021/07/05 07:54:41;;;;;;;4.03;2.30;;;;;;;19.04;nan;100109.09;5039836;28;20515;-75
2021/07/05 07:57:07;;;;;;;4.28;2.30;;;;;;;19.10;nan;100114.16;5039851;28;20029;-75
2021/07/05 07:59:32;;;;;;;3.10;1.92;;;;;;;19.24;nan;100110.81;5038363;28;20060;-75
2021/07/05 08:01:57;;;;;;;4.60;2.28;;;;;;;19.30;nan;100115.00;5040795;28;20094;-75
2021/07/05 08:04:23;;;;;;;4.53;2.42;;;;;;;19.39;nan;100111.88;5040523;28;20108;-75
2021/07/05 08:06:48;;;;;;;3.75;1.90;;;;;;;19.45;nan;100114.25;5040266;28;20167;-75
2021/07/05 08:09:13;;;;;;;3.63;1.88;;;;;;;19.52;nan;100113.00;5039385;28;20048;-75
2021/07/05 08:11:39;;;;;;;3.28;1.60;;;;;;;19.45;nan;100119.59;5037680;28;20045;-75
2021/07/05 08:14:06;;;;;;;3.33;1.85;;;;;;;19.60;nan;100112.63;5041158;28;20043;-74
2021/07/05 08:16:32;;;;;;;3.97;1.75;;;;;;;19.79;nan;100110.78;5041110;28;20045;-75
2021/07/05 08:18:57;;;;;;;2.35;1.30;;;;;;;19.91;nan;100111.94;5039536;28;20033;-75
2021/07/05 08:21:23;;;;;;;3.25;1.30;;;;;;;19.79;nan;100112.59;5041116;28;20402;-76
2021/07/05 08:23:49;;;;;;;2.88;1.30;;;;;;;19.88;nan;100118.31;5041805;28;20083;-75
2021/07/05 08:26:15;;;;;;;3.50;1.35;;;;;;;20.00;nan;100113.31;5037669;28;20437;-75
2021/07/05 08:28:41;;;;;;;2.83;1.40;;;;;;;20.01;nan;100125.75;5040596;28;20076;-75
2021/07/05 08:31:07;;;;;;;3.08;1.42;;;;;;;19.99;nan;100123.16;5038249;28;20449;-74
2021/07/05 08:33:34;;;;;;;3.88;2.15;;;;;;;20.14;nan;100119.66;5041264;28;20123;-74
2021/07/05 08:36:00;;;;;;;4.05;1.40;;;;;;;20.29;nan;100117.13;5040846;28;20133;-74
2021/07/05 08:38:26;;;;;;;3.97;2.05;;;;;;;20.42;nan;100115.53;5039342;28;20523;-74
2021/07/05 08:40:52;;;;;;;2.90;1.35;;;;;;;20.58;nan;100113.78;5039650;28;20403;-74
2021/07/05 08:43:24;;;;;;;3.45;1.70;;;;;;;20.51;nan;100117.72;5041637;28;20022;-74
2021/07/05 08:45:53;;;;;;;4.93;2.03;;;;;;;20.50;nan;100121.34;5038400;28;20119;-74
2021/07/05 08:48:20;;;;;;;5.68;2.03;;;;;;;20.70;nan;100131.03;5042967;28;20051;-74
2021/07/05 08:50:48;;;;;;;3.85;1.80;;;;;;;20.86;nan;100123.00;5043828;28;20407;-75
2021/07/05 08:53:13;;;;;;;3.17;1.80;;;;;;;20.82;nan;100129.47;5044908;28;20133;-74
2021/07/05 08:55:39;;;;;;;3.50;1.60;;;;;;;20.74;nan;100118.31;5042379;28;20064;-74
2021/07/05 08:58:07;;;;;;;5.38;2.40;;;;;;;20.90;nan;100111.13;5042806;28;20120;-75
2021/07/05 09:00:32;;;;;;;3.53;2.00;;;;;;;21.13;nan;100117.03;5045109;28;20444;-74
2021/07/05 09:03:00;;;;;;;3.58;1.90;;;;;;;21.34;nan;100123.00;5042925;28;20068;-74
2021/07/05 09:05:26;;;;;;;5.00;1.95;;;;;;;21.42;nan;100115.41;5042685;28;20112;-74
2021/07/05 09:08:04;;;;;;;4.57;2.20;;;;;;;21.55;nan;100116.44;5045040;28;20451;-74
2021/07/05 09:10:41;;;;;;;4.40;2.33;;;;;;;21.87;nan;100117.19;5021540;28;20037;-74
2021/07/05 09:13:10;;;;;;;7.18;3.13;;;;;;;22.08;nan;100108.81;5041231;28;20407;-74
2021/07/05 09:15:46;;;;;;;3.38;2.20;;;;;;;22.17;nan;100107.41;5041988;28;20041;-74
2021/07/05 09:18:38;;;;;;;4.18;2.20;;;;;;;22.31;nan;100102.94;5042706;28;20401;-73
2021/07/05 09:21:23;;;;;;;4.90;2.35;;;;;;;22.58;nan;100096.78;5044648;28;20032;-73
2021/07/05 09:23:51;;;;;;;4.78;2.40;;;;;;;22.82;nan;100099.78;5039581;28;20066;-74
2021/07/05 09:26:37;;;;;;;3.30;2.20;;;;;;;23.06;nan;100089.28;5042092;28;20400;-75
2021/07/05 09:29:16;;;;;;;3.53;1.90;;;;;;;23.35;nan;100091.88;5043487;28;20490;-75
2021/07/05 09:31:42;;;;;;;4.40;2.22;;;;;;;23.20;nan;100080.28;5044100;28;20076;-75
2021/07/05 09:34:20;;;;;;;5.22;2.45;;;;;;;23.43;nan;100081.47;5041956;28;20048;-75
2021/07/05 09:36:46;;;;;;;3.88;2.42;;;;;;;23.63;nan;100091.78;5042170;28;20075;-75
2021/07/05 09:39:20;;;;;;;4.03;2.60;;;;;;;23.85;nan;100093.03;5044063;28;20518;-74
2021/07/05 09:41:46;;;;;;;6.28;2.90;;;;;;;23.95;nan;100095.97;5044492;28;20037;-74
2021/07/05 09:44:18;;;;;;;5.82;2.95;;;;;;;23.97;nan;100092.22;5036212;28;20070;-75
2021/07/05 09:46:51;;;;;;;7.20;3.10;;;;;;;24.04;nan;100084.53;5044446;28;20036;-75
2021/07/05 09:49:22;;;;;;;4.28;2.90;;;;;;;24.20;nan;100074.41;5042068;28;20079;-76
2021/07/05 09:52:11;;;;;;;4.70;2.92;;;;;;;24.21;nan;100075.28;5040905;28;20091;-75
2021/07/05 09:54:40;;;;;;;5.05;2.88;;;;;;;24.27;nan;100064.91;5033050;28;20493;-74
2021/07/05 09:57:25;;;;;;;4.35;2.42;;;;;;;24.49;nan;100075.06;5043417;28;20071;-75
2021/07/05 09:59:52;;;;;;;3.97;2.42;;;;;;;24.62;nan;100075.06;5039302;28;20028;-73
2021/07/05 10:02:17;;;;;;;7.15;3.00;;;;;;;24.57;nan;100068.28;5041904;28;20028;-74
2021/07/05 10:04:45;;;;;;;3.42;2.50;;;;;;;24.63;nan;100059.75;5041877;28;20030;-74
2021/07/05 10:07:10;;;;;;;5.38;2.72;;;;;;;25.03;nan;100063.09;5021033;28;20108;-74
2021/07/05 10:09:47;;;;;;;4.55;2.50;;;;;;;25.16;nan;100059.53;5041522;28;20495;-74
2021/07/05 10:12:30;;;;;;;3.53;2.33;;;;;;;25.57;nan;100059.97;5036452;28;20491;-74
2021/07/05 10:15:03;;;;;;;5.03;3.08;;;;;;;25.36;nan;100053.47;5037482;28;20064;-75
2021/07/05 10:17:30;;;;;;;5.38;3.42;;;;;;;25.59;nan;100059.84;5040982;28;20526;-75
2021/07/05 10:19:56;;;;;;;7.13;5.20;;;;;;;25.62;nan;100048.78;5052515;28;20057;-74
2021/07/05 10:22:23;;;;;;;6.00;4.78;;;;;;;25.72;nan;100043.53;5047105;28;20537;-74
2021/07/05 10:24:50;;;;;;;4.68;2.70;;;;;;;26.04;nan;100043.75;5041693;28;20036;-75
2021/07/05 10:27:16;;;;;;;5.65;2.30;;;;;;;26.47;nan;100037.66;5042496;28;20041;-74
2021/07/05 10:29:43;;;;;;;7.05;4.75;;;;;;;26.74;nan;100031.03;5039549;28;20053;-74
2021/07/05 10:32:09;;;;;;;5.40;3.15;;;;;;;26.89;nan;100030.63;5020047;28;20076;-75
2021/07/05 10:34:37;;;;;;;4.57;2.20;;;;;;;27.11;nan;100027.00;5042348;28;20040;-75
2021/07/05 10:37:04;;;;;;;3.30;2.30;;;;;;;27.06;nan;100037.38;5040728;28;20068;-75
2021/07/05 10:39:32;;;;;;;4.05;1.98;;;;;;;27.10;nan;100033.41;5042143;28;20037;-75
2021/07/05 10:41:58;;;;;;;17.10;7.65;;;;;;;27.28;nan;100024.78;5043506;28;20446;-74
2021/07/05 10:44:42;;;;;;;27.02;7.80;;;;;;;27.44;nan;100025.19;5039203;28;20060;-75
2021/07/05 10:47:07;;;;;;;2.72;1.77;;;;;;;27.46;nan;100031.34;5037964;28;20030;-75
2021/07/05 10:49:34;;;;;;;9.13;5.15;;;;;;;27.19;nan;100033.66;5039857;28;20411;-75
2021/07/05 10:52:13;;;;;;;13.60;4.57;;;;;;;27.52;nan;100032.66;5042898;28;20044;-75
2021/07/05 10:54:52;;;;;;;9.85;3.08;;;;;;;27.53;nan;100027.09;5042787;28;20048;-75
2021/07/05 10:57:33;;;;;;;5.05;2.90;;;;;;;27.44;nan;100022.47;5042674;28;20044;-75
2021/07/05 11:00:12;;;;;;;4.97;2.63;;;;;;;27.32;nan;100023.50;5040626;28;20032;-75
2021/07/05 11:02:42;;;;;;;4.07;2.28;;;;;;;27.48;nan;100034.78;5033068;28;20044;-74
2021/07/05 11:05:28;;;;;;;6.33;2.80;;;;;;;27.65;nan;100021.66;5036651;28;20032;-75
2021/07/05 11:07:55;;;;;;;3.15;2.03;;;;;;;27.97;nan;100024.31;5048969;23;20271;-80
2021/07/05 11:10:30;;;;;;;6.00;1.80;;;;;;;27.76;nan;100021.56;5051285;28;20129;-79
2021/07/05 11:13:04;;;;;;;4.95;2.38;;;;;;;27.44;nan;100018.91;5039621;28;20045;-77
2021/07/05 11:15:47;;;;;;;2.55;1.60;;;;;;;27.51;nan;100015.56;5035774;28;20037;-77
2021/07/05 11:18:42;;;;;;;3.85;2.45;;;;;;;27.53;nan;100012.69;5040765;28;20499;-77
2021/07/05 11:21:30;;;;;;;3.58;1.92;;;;;;;27.40;nan;100012.03;5057367;28;20103;-77
2021/07/05 11:23:59;;;;;;;4.65;2.15;;;;;;;27.26;nan;100010.50;5049414;28;20029;-77
2021/07/05 11:26:35;;;;;;;4.03;1.83;;;;;;;27.49;nan;100014.81;5050716;28;20040;-76
2021/07/05 11:29:15;;;;;;;4.90;2.15;;;;;;;27.64;nan;100004.53;5052600;28;20037;-76
2021/07/05 11:31:49;;;;;;;10.40;4.10;;;;;;;27.68;nan;100010.53;5051998;28;20115;-77
2021/07/05 11:34:34;;;;;;;3.53;2.20;;;;;;;27.76;nan;100019.72;5052900;28;20033;-77
2021/07/05 11:37:16;;;;;;;5.40;3.25;;;;;;;27.90;nan;100010.44;5050365;28;20038;-77
2021/07/05 11:39:50;;;;;;;3.20;2.13;;;;;;;28.06;nan;100004.53;5051979;28;20040;-77
2021/07/05 11:42:41;;;;;;;5.72;2.38;;;;;;;28.34;nan;100007.50;5051272;28;20029;-77
2021/07/05 11:45:07;;;;;;;2.80;1.48;;;;;;;28.41;nan;100005.97;5061586;28;20056;-78
2021/07/05 11:47:36;;;;;;;1.85;1.35;;;;;;;28.08;nan;100007.09;5066509;28;20036;-77